createdAt,value
2023-04-25T00:01:52.298Z,70.64
2023-04-25T00:03:56.115Z,70.90
2023-04-25T00:06:02.865Z,70.83
2023-04-25T00:08:06.268Z,70.59
2023-04-25T00:10:12.045Z,70.79
2023-04-25T00:12:17.959Z,70.45
2023-04-25T00:14:21.341Z,70.72
2023-04-25T00:16:24.901Z,70.80
2023-04-25T00:18:29.759Z,70.22
2023-04-25T00:20:33.154Z,70.49
2023-04-25T00:22:38.155Z,70.38
2023-04-25T00:24:41.535Z,70.44
2023-04-25T00:26:45.536Z,70.72
2023-04-25T00:28:50.324Z,70.44
2023-04-25T00:30:53.751Z,70.56
2023-04-25T00:32:57.141Z,70.74
2023-04-25T00:35:00.618Z,71.35
2023-04-25T00:37:04.076Z,71.11
2023-04-25T00:39:07.433Z,71.16
2023-04-25T00:41:10.833Z,71.50
2023-04-25T00:43:14.150Z,71.51
2023-04-25T00:45:19.398Z,71.35
2023-04-25T00:47:23.647Z,71.04
2023-04-25T00:49:27.218Z,71.07
2023-04-25T00:51:31.092Z,71.30
2023-04-25T00:53:35.039Z,71.18
2023-04-25T00:55:38.638Z,71.13
2023-04-25T00:57:42.615Z,71.63
2023-04-25T00:59:47.535Z,72.36
2023-04-25T01:01:52.704Z,72.87
2023-04-25T01:03:58.207Z,73.29
2023-04-25T01:06:01.835Z,73.15
2023-04-25T01:08:05.558Z,73.47
2023-04-25T01:10:10.061Z,73.53
2023-04-25T01:12:15.590Z,73.21
2023-04-25T01:14:19.118Z,73.28
2023-04-25T01:16:24.783Z,73.34
2023-04-25T01:18:29.593Z,73.54
2023-04-25T01:20:34.573Z,73.94
2023-04-25T01:22:39.775Z,74.11
2023-04-25T01:24:43.673Z,74.59
2023-04-25T01:26:50.845Z,74.69
2023-04-25T01:28:58.987Z,75.13
2023-04-25T01:31:03.540Z,75.24
2023-04-25T01:33:08.118Z,75.51
2023-04-25T01:35:13.528Z,75.17
2023-04-25T01:37:18.306Z,75.42
2023-04-25T01:39:23.178Z,75.40
2023-04-25T01:41:26.727Z,75.02
2023-04-25T01:43:30.277Z,74.96
2023-04-25T01:45:34.016Z,75.02
2023-04-25T01:47:37.574Z,74.98
2023-04-25T01:49:41.055Z,75.11
2023-04-25T01:51:45.044Z,75.80
2023-04-25T01:53:48.924Z,75.88
2023-04-25T01:55:53.917Z,76.27
2023-04-25T01:57:59.891Z,76.19
2023-04-25T02:00:18.969Z,75.36
2023-04-25T02:02:22.318Z,75.72
2023-04-25T02:04:26.135Z,75.61
2023-04-25T02:06:29.824Z,75.58
2023-04-25T02:08:34.733Z,75.91
2023-04-25T02:10:38.673Z,75.99
2023-04-25T02:12:55.993Z,75.84
2023-04-25T02:15:19.698Z,75.82
2023-04-25T02:17:29.403Z,75.69
2023-04-25T02:19:32.862Z,75.97
2023-04-25T02:21:36.656Z,76.04
2023-04-25T02:23:40.913Z,76.05
2023-04-25T02:25:44.257Z,76.27
2023-04-25T02:27:47.967Z,76.08
2023-04-25T02:29:52.952Z,76.05
2023-04-25T02:31:56.649Z,76.02
2023-04-25T02:34:00.177Z,76.51
2023-04-25T02:36:05.370Z,76.38
2023-04-25T02:38:08.747Z,76.40
2023-04-25T02:40:12.634Z,76.25
2023-04-25T02:42:15.917Z,75.90
2023-04-25T02:44:19.221Z,76.17
2023-04-25T02:46:37.864Z,75.93
2023-04-25T02:48:43.015Z,75.81
2023-04-25T02:50:46.795Z,75.99
2023-04-25T02:52:50.106Z,75.56
2023-04-25T02:54:58.477Z,76.19
2023-04-25T02:57:03.398Z,75.83
2023-04-25T02:59:12.408Z,76.13
2023-04-25T03:01:15.999Z,76.40
2023-04-25T03:03:22.789Z,76.20
2023-04-25T03:05:26.942Z,75.98
2023-04-25T03:07:30.374Z,75.98
2023-04-25T03:09:33.813Z,75.99
2023-04-25T03:11:37.352Z,75.99
2023-04-25T03:13:41.137Z,75.79
2023-04-25T03:15:46.137Z,75.20
2023-04-25T03:17:49.596Z,75.56
2023-04-25T03:19:54.267Z,75.44
2023-04-25T03:21:57.741Z,74.69
2023-04-25T03:24:02.608Z,74.90
2023-04-25T03:26:06.253Z,75.26
2023-04-25T03:28:09.629Z,75.13
2023-04-25T03:30:13.568Z,74.76
2023-04-25T03:32:18.595Z,74.71
2023-04-25T03:34:23.412Z,74.74
2023-04-25T03:36:28.262Z,74.92
2023-04-25T03:38:31.862Z,75.28
2023-04-25T03:40:35.888Z,74.76
2023-04-25T03:42:51.963Z,74.77
2023-04-25T03:44:55.557Z,75.28
2023-04-25T03:46:58.988Z,75.38
2023-04-25T03:49:02.686Z,75.51
2023-04-25T03:51:23.178Z,75.25
2023-04-25T03:53:27.904Z,75.81
2023-04-25T03:56:10.496Z,75.39
2023-04-25T03:58:15.660Z,75.62
2023-04-25T04:00:19.076Z,75.52
2023-04-25T04:02:22.443Z,75.81
2023-04-25T04:04:27.263Z,76.06
2023-04-25T04:06:30.802Z,75.76
2023-04-25T04:08:42.969Z,76.37
2023-04-25T04:10:47.749Z,76.02
2023-04-25T04:12:51.258Z,76.51
2023-04-25T04:14:54.669Z,77.14
2023-04-25T04:17:03.695Z,77.57
2023-04-25T04:19:13.293Z,77.82
2023-04-25T04:21:25.744Z,78.03
2023-04-25T04:23:30.129Z,78.22
2023-04-25T04:25:38.563Z,77.91
2023-04-25T04:27:52.816Z,78.00
2023-04-25T04:30:05.949Z,78.18
2023-04-25T04:32:15.607Z,78.07
2023-04-25T04:34:19.833Z,78.27
2023-04-25T04:36:24.006Z,78.06
2023-04-25T04:38:28.244Z,78.29
2023-04-25T04:40:35.847Z,78.26
2023-04-25T04:43:04.016Z,78.50
2023-04-25T04:45:41.273Z,78.72
2023-04-25T04:47:56.218Z,78.68
2023-04-25T04:50:19.234Z,78.99
2023-04-25T04:52:43.093Z,78.96
2023-04-25T04:55:15.296Z,79.44
2023-04-25T04:57:39.451Z,79.22
2023-04-25T05:00:02.212Z,79.81
2023-04-25T05:02:33.215Z,79.82
2023-04-25T05:04:59.579Z,79.81
2023-04-25T05:07:21.613Z,79.67
2023-04-25T05:09:45.549Z,79.38
2023-04-25T05:11:48.859Z,79.14
2023-04-25T05:14:04.044Z,79.50
2023-04-25T05:16:22.706Z,79.11
2023-04-25T05:18:34.558Z,79.20
2023-04-25T05:20:56.585Z,79.13
2023-04-25T05:23:17.277Z,79.15
2023-04-25T05:25:33.674Z,79.05
2023-04-25T05:27:43.726Z,79.35
2023-04-25T05:30:05.813Z,79.20
2023-04-25T05:32:49.195Z,79.25
2023-04-25T05:34:52.825Z,79.20
2023-04-25T05:37:05.742Z,79.10
2023-04-25T05:39:12.320Z,79.10
2023-04-25T05:41:44.686Z,78.88
2023-04-25T05:44:10.826Z,78.99
2023-04-25T05:46:40.032Z,79.16
2023-04-25T05:48:56.607Z,79.03
2023-04-25T05:51:19.430Z,79.05
2023-04-25T05:53:34.031Z,79.12
2023-04-25T05:55:38.801Z,78.79
2023-04-25T05:58:02.900Z,78.99
2023-04-25T06:00:10.244Z,79.25
2023-04-25T06:02:21.531Z,78.59
2023-04-25T06:04:27.702Z,78.26
2023-04-25T06:06:31.537Z,78.36
2023-04-25T06:08:36.433Z,78.33
2023-04-25T06:10:40.588Z,77.86
2023-04-25T06:12:43.982Z,77.25
2023-04-25T06:14:47.728Z,77.01
2023-04-25T06:16:51.617Z,77.47
2023-04-25T06:18:55.096Z,76.87
2023-04-25T06:20:59.807Z,76.10
2023-04-25T06:23:03.468Z,75.84
2023-04-25T06:25:29.602Z,75.40
2023-04-25T06:27:33.470Z,75.63
2023-04-25T06:29:36.934Z,75.19
2023-04-25T06:31:40.635Z,74.87
2023-04-25T06:33:44.090Z,74.35
2023-04-25T06:35:47.640Z,74.15
2023-04-25T06:37:55.689Z,78.13
2023-04-25T06:40:00.711Z,76.08
2023-04-25T06:42:04.161Z,75.60
2023-04-25T06:44:24.132Z,74.78
2023-04-25T06:46:29.692Z,73.75
2023-04-25T06:48:35.519Z,72.80
2023-04-25T06:50:38.904Z,72.21
2023-04-25T06:52:42.442Z,71.36
2023-04-25T06:54:47.326Z,71.18
2023-04-25T06:57:09.058Z,71.73
2023-04-25T06:59:12.621Z,71.91
2023-04-25T07:01:18.239Z,72.56
2023-04-25T07:03:22.571Z,72.51
2023-04-25T07:05:27.349Z,73.08
2023-04-25T07:07:31.330Z,72.91
2023-04-25T07:09:35.892Z,72.96
2023-04-25T07:11:43.942Z,72.29
2023-04-25T07:13:47.300Z,71.92
2023-04-25T07:15:50.821Z,72.12
2023-04-25T07:17:56.531Z,72.41
2023-04-25T07:20:00.230Z,71.82
2023-04-25T07:22:04.502Z,71.32
2023-04-25T07:24:09.998Z,71.39
2023-04-25T07:26:17.715Z,70.94
2023-04-25T07:28:42.347Z,70.41
2023-04-25T07:30:45.752Z,69.44
2023-04-25T07:32:49.667Z,69.76
2023-04-25T07:34:53.161Z,69.62
2023-04-25T07:36:56.495Z,68.76
2023-04-25T07:39:02.367Z,68.50
2023-04-25T07:41:06.535Z,68.29
2023-04-25T07:43:10.005Z,67.51
2023-04-25T07:45:25.596Z,67.28
2023-04-25T07:47:30.022Z,66.78
2023-04-25T07:49:33.987Z,66.74
2023-04-25T07:51:37.439Z,65.85
2023-04-25T07:53:46.132Z,65.90
2023-04-25T07:55:52.673Z,65.64
2023-04-25T07:57:58.543Z,65.57
2023-04-25T08:00:09.999Z,65.32
2023-04-25T08:02:18.492Z,64.22
2023-04-25T08:04:22.535Z,63.55
2023-04-25T08:06:37.434Z,63.29
2023-04-25T08:08:52.350Z,63.60
2023-04-25T08:10:58.999Z,63.16
2023-04-25T08:13:04.004Z,63.49
2023-04-25T08:15:08.499Z,63.83
2023-04-25T08:17:15.261Z,63.67
2023-04-25T08:19:20.510Z,63.79
2023-04-25T08:21:24.212Z,62.96
2023-04-25T08:23:29.553Z,63.10
2023-04-25T08:25:58.925Z,63.17
2023-04-25T08:28:04.761Z,62.87
2023-04-25T08:30:10.304Z,63.27
2023-04-25T08:32:15.321Z,62.33
2023-04-25T08:34:31.014Z,63.00
2023-04-25T08:36:40.257Z,63.01
2023-04-25T08:39:22.587Z,63.33
2023-04-25T08:41:46.387Z,63.03
2023-04-25T08:43:50.975Z,64.56
2023-04-25T08:46:00.722Z,64.59
2023-04-25T08:48:18.784Z,65.26
2023-04-25T08:50:25.947Z,65.72
2023-04-25T08:52:32.284Z,65.38
2023-04-25T08:54:39.645Z,65.31
2023-04-25T08:56:49.416Z,64.63
2023-04-25T08:58:53.340Z,62.77
2023-04-25T09:00:57.268Z,61.51
2023-04-25T09:03:05.382Z,60.53
2023-04-25T09:05:12.028Z,59.98
2023-04-25T09:07:19.690Z,59.79
2023-04-25T09:09:23.325Z,59.38
2023-04-25T09:11:26.976Z,58.24
2023-04-25T09:13:31.428Z,57.59
2023-04-25T09:16:13.069Z,57.70
2023-04-25T09:18:30.915Z,58.03
2023-04-25T09:20:59.582Z,58.15
2023-04-25T09:23:08.218Z,57.99
2023-04-25T09:25:15.516Z,57.27
2023-04-25T09:27:24.032Z,57.39
2023-04-25T09:29:33.738Z,57.47
2023-04-25T09:31:37.542Z,57.75
2023-04-25T09:33:42.850Z,55.32
2023-04-25T09:35:47.146Z,55.02
2023-04-25T09:38:01.850Z,54.84
2023-04-25T09:40:25.229Z,53.28
2023-04-25T09:42:36.558Z,51.87
2023-04-25T09:44:44.939Z,52.85
2023-04-25T09:46:53.968Z,53.51
2023-04-25T09:49:00.674Z,52.92
2023-04-25T09:51:14.694Z,51.65
2023-04-25T09:53:20.107Z,51.58
2023-04-25T09:55:40.945Z,51.28
2023-04-25T09:57:47.347Z,51.46
2023-04-25T09:59:52.472Z,51.56
2023-04-25T10:01:58.334Z,51.35
2023-04-25T10:04:13.390Z,51.43
2023-04-25T10:06:40.880Z,51.11
2023-04-25T10:08:45.295Z,51.12
2023-04-25T10:10:51.798Z,51.38
2023-04-25T10:12:56.611Z,51.66
2023-04-25T10:15:01.401Z,51.42
2023-04-25T10:17:04.890Z,50.49
2023-04-25T10:19:09.238Z,50.28
2023-04-25T10:21:13.563Z,50.26
2023-04-25T10:23:17.977Z,49.30
2023-04-25T10:25:21.616Z,50.05
2023-04-25T10:27:29.010Z,50.05
2023-04-25T10:29:32.539Z,50.00
2023-04-25T10:31:47.405Z,50.11
2023-04-25T10:33:51.460Z,50.19
2023-04-25T10:35:55.220Z,49.96
2023-04-25T10:37:59.992Z,50.21
2023-04-25T10:40:10.799Z,50.37
2023-04-25T10:42:14.205Z,50.88
2023-04-25T10:44:18.907Z,50.67
2023-04-25T10:46:25.589Z,50.57
2023-04-25T10:48:30.529Z,51.23
2023-04-25T10:50:40.277Z,50.81
2023-04-25T10:52:44.249Z,50.24
2023-04-25T10:54:53.256Z,50.58
2023-04-25T10:56:56.696Z,50.51
2023-04-25T10:59:11.209Z,50.62
2023-04-25T11:01:17.427Z,50.37
2023-04-25T11:03:25.027Z,50.69
2023-04-25T11:05:36.440Z,49.91
2023-04-25T11:08:03.933Z,49.49
2023-04-25T11:10:10.865Z,48.28
2023-04-25T11:12:14.864Z,48.26
2023-04-25T11:14:18.287Z,48.26
2023-04-25T11:16:28.378Z,47.79
2023-04-25T11:18:33.861Z,47.86
2023-04-25T11:20:37.427Z,46.46
2023-04-25T11:22:42.658Z,45.33
2023-04-25T11:24:47.833Z,45.25
2023-04-25T11:26:52.194Z,45.11
2023-04-25T11:28:59.473Z,44.74
2023-04-25T11:31:04.903Z,44.67
2023-04-25T11:33:11.692Z,44.32
2023-04-25T11:35:16.102Z,44.58
2023-04-25T11:37:19.515Z,43.91
2023-04-25T11:39:22.934Z,44.33
2023-04-25T11:41:27.986Z,43.79
2023-04-25T11:43:31.488Z,42.36
2023-04-25T11:45:35.133Z,41.16
2023-04-25T11:47:39.903Z,41.69
2023-04-25T11:49:44.705Z,42.08
2023-04-25T11:51:49.625Z,41.14
2023-04-25T11:53:53.003Z,41.06
2023-04-25T11:55:57.060Z,40.35
2023-04-25T11:58:02.242Z,40.78
2023-04-25T12:00:18.114Z,39.12
2023-04-25T12:02:28.672Z,39.28
2023-04-25T12:04:33.602Z,39.36
2023-04-25T12:06:41.231Z,39.24
2023-04-25T12:09:04.069Z,38.62
2023-04-25T12:11:07.530Z,38.00
2023-04-25T12:13:22.377Z,37.57
2023-04-25T12:15:27.399Z,37.74
2023-04-25T12:17:30.907Z,37.86
2023-04-25T12:19:36.186Z,37.91
2023-04-25T12:21:54.539Z,37.92
2023-04-25T12:24:11.823Z,38.31
2023-04-25T12:26:15.326Z,38.76
2023-04-25T12:28:23.030Z,39.14
2023-04-25T12:30:26.509Z,39.67
2023-04-25T12:32:30.042Z,40.88
2023-04-25T12:34:36.652Z,41.79
2023-04-25T12:36:41.525Z,42.65
2023-04-25T12:38:45.613Z,43.03
2023-04-25T12:40:49.093Z,43.27
2023-04-25T12:42:52.570Z,44.14
2023-04-25T12:44:56.080Z,44.61
2023-04-25T12:47:00.885Z,45.72
2023-04-25T12:51:28.976Z,46.67
2023-04-25T12:53:35.547Z,46.71
2023-04-25T12:55:39.379Z,46.27
2023-04-25T12:55:52.598Z,46.72
2023-04-25T12:57:42.858Z,46.02
2023-04-25T12:59:46.333Z,45.87
2023-04-25T13:01:49.808Z,45.19
2023-04-25T13:03:53.613Z,45.69
2023-04-25T13:05:57.216Z,45.85
2023-04-25T13:08:00.838Z,46.05
2023-04-25T13:10:06.722Z,45.17
2023-04-25T13:12:10.598Z,44.24
2023-04-25T13:14:14.057Z,44.45
2023-04-25T13:16:17.610Z,44.51
2023-04-25T13:18:21.171Z,44.11
2023-04-25T13:20:24.700Z,44.12
2023-04-25T13:22:28.285Z,45.13
2023-04-25T13:24:31.782Z,45.96
2023-04-25T13:26:36.989Z,47.22
2023-04-25T13:28:42.776Z,46.87
2023-04-25T13:30:48.901Z,46.52
2023-04-25T13:32:52.472Z,46.81
2023-04-25T13:34:56.902Z,46.32
2023-04-25T13:37:00.396Z,45.20
2023-04-25T13:39:05.477Z,43.45
2023-04-25T13:41:08.951Z,43.25
2023-04-25T13:43:13.965Z,42.61
2023-04-25T13:45:17.348Z,42.36
2023-04-25T13:47:21.190Z,42.54
2023-04-25T13:49:24.854Z,42.16
2023-04-25T13:51:28.281Z,41.91
2023-04-25T13:53:31.729Z,41.21
2023-04-25T13:55:36.399Z,41.82
2023-04-25T13:57:41.356Z,41.61
2023-04-25T13:59:47.050Z,41.57
2023-04-25T14:01:51.007Z,42.35
2023-04-25T14:03:54.659Z,42.81
2023-04-25T14:05:58.545Z,43.66
2023-04-25T14:08:02.426Z,43.68
2023-04-25T14:10:07.898Z,44.84
2023-04-25T14:12:12.170Z,45.35
2023-04-25T14:14:17.468Z,45.79
2023-04-25T14:16:22.277Z,45.84
2023-04-25T14:18:25.772Z,45.53
2023-04-25T14:20:29.352Z,44.63
2023-04-25T14:22:32.948Z,42.40
2023-04-25T14:24:37.275Z,40.78
2023-04-25T14:26:41.682Z,37.77
2023-04-25T14:28:45.077Z,38.15
2023-04-25T14:30:48.637Z,38.81
2023-04-25T14:32:53.360Z,39.17
2023-04-25T14:34:56.875Z,38.85
2023-04-25T14:37:00.346Z,39.10
2023-04-25T14:39:04.019Z,39.31
2023-04-25T14:41:07.507Z,39.71
2023-04-25T14:43:11.126Z,39.16
2023-04-25T14:45:14.459Z,38.86
2023-04-25T14:47:18.314Z,38.10
2023-04-25T14:49:23.121Z,37.62
2023-04-25T14:51:27.503Z,37.78
2023-04-25T14:53:31.529Z,37.61
2023-04-25T14:55:34.939Z,37.67
2023-04-25T14:57:39.200Z,37.38
2023-04-25T14:59:42.796Z,37.20
2023-04-25T15:01:46.215Z,38.78
2023-04-25T15:03:50.404Z,39.25
2023-04-25T15:05:57.345Z,39.54
2023-04-25T15:08:01.317Z,38.55
2023-04-25T15:10:05.315Z,38.72
2023-04-25T15:12:09.876Z,38.96
2023-04-25T15:14:13.269Z,39.58
2023-04-25T15:16:16.857Z,39.57
2023-04-25T15:18:23.172Z,40.27
2023-04-25T15:20:26.856Z,40.55
2023-04-25T15:22:31.812Z,40.90
2023-04-25T15:24:35.288Z,41.15
2023-04-25T15:26:38.720Z,41.45
2023-04-25T15:28:42.250Z,42.37
2023-04-25T15:30:46.270Z,42.37
2023-04-25T15:32:50.160Z,42.26
2023-04-25T15:34:53.626Z,42.70
2023-04-25T15:36:58.484Z,43.34
2023-04-25T15:39:03.894Z,43.31
2023-04-25T15:41:07.484Z,43.08
2023-04-25T15:43:15.724Z,42.95
2023-04-25T15:45:21.603Z,42.60
2023-04-25T15:47:25.079Z,42.72
2023-04-25T15:49:28.561Z,42.96
2023-04-25T15:51:33.641Z,43.49
2023-04-25T15:53:37.496Z,44.27
2023-04-25T15:55:42.447Z,44.90
2023-04-25T15:57:46.046Z,45.01
2023-04-25T15:59:50.080Z,44.96
2023-04-25T16:01:53.555Z,45.18
2023-04-25T16:03:58.208Z,44.94
2023-04-25T16:06:02.158Z,44.56
2023-04-25T16:08:05.882Z,43.45
2023-04-25T16:10:11.108Z,42.89
2023-04-25T16:12:16.965Z,41.62
2023-04-25T16:14:20.978Z,41.16
2023-04-25T16:16:24.394Z,40.60
2023-04-25T16:18:28.736Z,40.57
2023-04-25T16:20:32.419Z,41.01
2023-04-25T16:22:36.050Z,40.47
2023-04-25T16:24:39.409Z,40.34
2023-04-25T16:26:43.608Z,41.16
2023-04-25T16:28:48.388Z,41.42
2023-04-25T16:30:51.881Z,41.76
2023-04-25T16:32:57.356Z,42.04
2023-04-25T16:35:01.072Z,42.20
2023-04-25T16:37:04.522Z,42.68
2023-04-25T16:39:09.650Z,41.94
2023-04-25T16:41:13.496Z,42.24
2023-04-25T16:43:19.887Z,41.31
2023-04-25T16:45:24.703Z,39.84
2023-04-25T16:47:28.269Z,40.40
2023-04-25T16:49:31.775Z,39.75
2023-04-25T16:51:35.279Z,39.16
2023-04-25T16:53:38.879Z,38.68
2023-04-25T16:55:42.262Z,37.81
2023-04-25T16:57:45.669Z,37.79
2023-04-25T16:59:50.975Z,38.06
2023-04-25T17:01:55.969Z,37.77
2023-04-25T17:03:59.990Z,37.63
2023-04-25T17:06:04.025Z,37.57
2023-04-25T17:08:08.253Z,37.49
2023-04-25T17:10:12.126Z,37.26
2023-04-25T17:12:15.670Z,36.90
2023-04-25T17:14:19.004Z,36.79
2023-04-25T17:16:23.719Z,36.85
2023-04-25T17:18:29.092Z,37.09
2023-04-25T17:20:32.918Z,37.14
2023-04-25T17:22:37.150Z,37.05
2023-04-25T17:24:41.418Z,37.15
2023-04-25T17:26:46.797Z,37.23
2023-04-25T17:28:51.876Z,37.42
2023-04-25T17:30:56.089Z,37.72
2023-04-25T17:33:00.353Z,38.62
2023-04-25T17:35:05.668Z,39.28
2023-04-25T17:37:15.043Z,39.38
2023-04-25T17:39:18.540Z,39.55
2023-04-25T17:41:21.928Z,39.61
2023-04-25T17:43:26.582Z,40.22
2023-04-25T17:45:34.561Z,40.21
2023-04-25T17:47:38.246Z,39.65
2023-04-25T17:49:42.729Z,39.37
2023-04-25T17:51:47.547Z,39.46
2023-04-25T17:53:51.938Z,39.26
2023-04-25T17:55:56.267Z,39.40
2023-04-25T17:57:59.636Z,39.29
2023-04-25T18:00:05.732Z,39.35
2023-04-25T18:02:16.521Z,39.65
2023-04-25T18:04:20.702Z,39.69
2023-04-25T18:06:24.234Z,39.54
2023-04-25T18:08:28.926Z,39.69
2023-04-25T18:10:33.864Z,40.14
2023-04-25T18:12:38.273Z,40.31
2023-04-25T18:14:41.703Z,41.38
2023-04-25T18:16:45.883Z,41.55
2023-04-25T18:18:53.280Z,41.77
2023-04-25T18:20:57.240Z,42.71
2023-04-25T18:23:01.004Z,42.86
2023-04-25T18:25:08.340Z,43.50
2023-04-25T18:27:11.873Z,44.03
2023-04-25T18:29:31.496Z,44.30
2023-04-25T18:31:37.015Z,44.57
2023-04-25T18:33:41.716Z,44.29
2023-04-25T18:35:57.453Z,44.72
2023-04-25T18:38:01.846Z,44.91
2023-04-25T18:40:10.049Z,44.87
2023-04-25T18:42:13.932Z,45.15
2023-04-25T18:44:17.844Z,45.15
2023-04-25T18:46:22.637Z,45.28
2023-04-25T18:48:27.703Z,45.28
2023-04-25T18:50:33.182Z,45.04
2023-04-25T18:52:36.591Z,45.28
2023-04-25T18:54:40.398Z,45.44
2023-04-25T18:56:45.243Z,45.42
2023-04-25T18:58:48.709Z,45.60
2023-04-25T19:00:52.763Z,45.61
2023-04-25T19:02:58.147Z,45.46
2023-04-25T19:05:01.774Z,45.64
2023-04-25T19:07:05.278Z,45.77
2023-04-25T19:09:10.282Z,46.16
2023-04-25T19:11:20.937Z,45.92
2023-04-25T19:13:28.313Z,45.99
2023-04-25T19:15:33.417Z,46.34
2023-04-25T19:17:37.203Z,46.46
2023-04-25T19:19:40.981Z,46.78
2023-04-25T19:21:44.389Z,46.72
2023-04-25T19:23:47.849Z,46.82
2023-04-25T19:25:51.362Z,47.09
2023-04-25T19:27:55.027Z,47.42
2023-04-25T19:30:07.781Z,47.54
2023-04-25T19:32:11.483Z,47.13
2023-04-25T19:34:15.154Z,47.34
2023-04-25T19:36:18.735Z,47.04
2023-04-25T19:38:22.089Z,47.66
2023-04-25T19:40:26.967Z,48.14
2023-04-25T19:42:30.291Z,48.41
2023-04-25T19:44:33.676Z,49.08
2023-04-25T19:46:38.785Z,49.30
2023-04-25T19:48:44.217Z,49.17
2023-04-25T19:50:47.621Z,49.81
2023-04-25T19:52:51.976Z,49.88
2023-04-25T19:54:58.141Z,50.12
2023-04-25T19:57:01.677Z,50.54
2023-04-25T19:59:05.053Z,50.60
2023-04-25T20:01:08.618Z,50.39
2023-04-25T20:03:13.482Z,50.83
2023-04-25T20:05:18.477Z,50.90
2023-04-25T20:07:22.811Z,50.87
2023-04-25T20:09:26.140Z,50.98
2023-04-25T20:11:29.560Z,50.93
2023-04-25T20:13:33.374Z,51.13
2023-04-25T20:15:37.037Z,51.06
2023-04-25T20:17:41.581Z,51.31
2023-04-25T20:19:46.432Z,51.26
2023-04-25T20:21:49.795Z,51.09
2023-04-25T20:23:53.080Z,51.48
2023-04-25T20:25:56.523Z,51.23
2023-04-25T20:28:00.042Z,51.86
2023-04-25T20:30:07.085Z,51.96
2023-04-25T20:32:10.682Z,51.95
2023-04-25T20:34:14.136Z,51.93
2023-04-25T20:36:19.701Z,51.87
2023-04-25T20:38:23.307Z,52.19
2023-04-25T20:40:26.723Z,52.03
2023-04-25T20:42:31.970Z,52.13
2023-04-25T20:44:35.924Z,52.20
2023-04-25T20:46:39.612Z,51.89
2023-04-25T20:48:43.061Z,52.13
2023-04-25T20:50:46.581Z,52.66
2023-04-25T20:52:51.287Z,52.35
2023-04-25T20:54:54.690Z,52.08
2023-04-25T20:56:58.037Z,52.38
2023-04-25T20:59:01.469Z,52.81
2023-04-25T21:01:06.387Z,52.52
2023-04-25T21:03:10.506Z,52.47
2023-04-25T21:05:14.106Z,52.65
2023-04-25T21:07:17.533Z,52.92
2023-04-25T21:09:22.328Z,52.40
2023-04-25T21:11:25.959Z,52.75
2023-04-25T21:13:29.470Z,52.80
2023-04-25T21:15:32.839Z,52.81
2023-04-25T21:17:36.309Z,52.98
2023-04-25T21:19:39.658Z,52.74
2023-04-25T21:21:43.075Z,52.74
2023-04-25T21:23:46.434Z,53.05
2023-04-25T21:25:53.432Z,52.71
2023-04-25T21:27:56.703Z,53.03
2023-04-25T21:30:00.012Z,52.95
2023-04-25T21:32:03.430Z,53.32
2023-04-25T21:34:07.693Z,53.51
2023-04-25T21:36:11.152Z,53.35
2023-04-25T21:38:15.543Z,53.66
2023-04-25T21:40:19.535Z,53.72
2023-04-25T21:42:24.602Z,53.75
2023-04-25T21:44:30.179Z,53.94
2023-04-25T21:46:33.712Z,54.24
2023-04-25T21:48:38.350Z,54.74
2023-04-25T21:50:41.640Z,54.07
2023-04-25T21:52:44.992Z,54.45
2023-04-25T21:54:48.311Z,54.36
2023-04-25T21:56:51.711Z,55.01
2023-04-25T21:58:56.426Z,55.15
2023-04-25T22:01:00.478Z,54.96
2023-04-25T22:03:04.008Z,54.86
2023-04-25T22:05:07.726Z,55.22
2023-04-25T22:07:11.030Z,55.52
2023-04-25T22:09:16.304Z,55.27
2023-04-25T22:11:19.681Z,55.44
2023-04-25T22:13:23.573Z,55.90
2023-04-25T22:15:29.683Z,55.58
2023-04-25T22:17:33.089Z,56.06
2023-04-25T22:19:37.135Z,56.42
2023-04-25T22:21:40.805Z,56.07
2023-04-25T22:23:44.254Z,56.44
2023-04-25T22:25:47.616Z,56.58
2023-04-25T22:27:51.519Z,56.71
2023-04-25T22:29:55.046Z,56.58
2023-04-25T22:31:59.971Z,57.19
2023-04-25T22:34:03.828Z,57.46
2023-04-25T22:36:07.688Z,57.45
2023-04-25T22:38:11.356Z,57.39
2023-04-25T22:40:15.507Z,57.37
2023-04-25T22:42:18.904Z,57.71
2023-04-25T22:44:22.567Z,57.71
2023-04-25T22:46:25.992Z,58.21
2023-04-25T22:48:30.884Z,58.24
2023-04-25T22:50:34.425Z,57.92
2023-04-25T22:52:37.822Z,58.06
2023-04-25T22:54:41.190Z,58.01
2023-04-25T22:56:45.216Z,58.36
2023-04-25T22:58:49.859Z,58.33
2023-04-25T23:00:54.620Z,58.75
2023-04-25T23:02:58.391Z,58.77
2023-04-25T23:05:04.698Z,58.57
2023-04-25T23:07:08.348Z,59.08
2023-04-25T23:09:12.464Z,59.08
2023-04-25T23:11:15.738Z,59.27
2023-04-25T23:13:19.098Z,59.76
2023-04-25T23:15:22.504Z,60.42
2023-04-25T23:17:26.015Z,60.18
2023-04-25T23:19:29.631Z,60.03
2023-04-25T23:21:34.322Z,60.13
2023-04-25T23:23:37.949Z,60.44
2023-04-25T23:25:41.380Z,60.83
2023-04-25T23:27:44.989Z,60.67
2023-04-25T23:29:54.609Z,60.70
2023-04-25T23:31:58.132Z,61.19
2023-04-25T23:34:01.454Z,61.03
2023-04-25T23:36:05.367Z,60.84
2023-04-25T23:38:10.161Z,61.06
2023-04-25T23:40:13.677Z,61.30
2023-04-25T23:42:17.418Z,61.15
2023-04-25T23:44:20.783Z,61.44
2023-04-25T23:46:24.227Z,61.00
2023-04-25T23:48:27.721Z,61.43
2023-04-25T23:50:31.376Z,61.31
2023-04-25T23:52:34.828Z,61.69
2023-04-25T23:54:39.524Z,61.93
2023-04-25T23:56:42.882Z,61.86
2023-04-25T23:58:46.590Z,61.89
